sensor_id;sensor_type;location;lat;lon;timestamp;temperature;humidity
32524;DHT22;18965;52.242;20.886;2022-11-02T00:00:28;13.30;83.50
32524;DHT22;18965;52.242;20.886;2022-11-02T00:02:54;13.30;83.50
32524;DHT22;18965;52.242;20.886;2022-11-02T00:05:20;13.30;83.40
32524;DHT22;18965;52.242;20.886;2022-11-02T00:07:50;13.30;83.50
32524;DHT22;18965;52.242;20.886;2022-11-02T00:10:17;13.30;83.50
32524;DHT22;18965;52.242;20.886;2022-11-02T00:12:43;13.30;83.50
32524;DHT22;18965;52.242;20.886;2022-11-02T00:15:10;13.30;83.50
32524;DHT22;18965;52.242;20.886;2022-11-02T00:17:36;13.30;83.60
32524;DHT22;18965;52.242;20.886;2022-11-02T00:20:03;13.30;83.50
32524;DHT22;18965;52.242;20.886;2022-11-02T00:22:30;13.30;83.60
32524;DHT22;18965;52.242;20.886;2022-11-02T00:24:59;13.40;83.60
32524;DHT22;18965;52.242;20.886;2022-11-02T00:27:26;13.30;83.60
32524;DHT22;18965;52.242;20.886;2022-11-02T00:29:53;13.40;84.30
32524;DHT22;18965;52.242;20.886;2022-11-02T00:32:19;13.30;83.50
32524;DHT22;18965;52.242;20.886;2022-11-02T00:34:44;13.40;83.60
32524;DHT22;18965;52.242;20.886;2022-11-02T00:37:10;13.40;83.70
32524;DHT22;18965;52.242;20.886;2022-11-02T00:39:37;13.40;83.70
32524;DHT22;18965;52.242;20.886;2022-11-02T00:42:03;13.40;83.70
32524;DHT22;18965;52.242;20.886;2022-11-02T00:44:29;13.40;83.60
32524;DHT22;18965;52.242;20.886;2022-11-02T00:46:54;13.40;83.60
32524;DHT22;18965;52.242;20.886;2022-11-02T00:49:20;13.40;83.70
32524;DHT22;18965;52.242;20.886;2022-11-02T00:51:46;13.40;83.70
32524;DHT22;18965;52.242;20.886;2022-11-02T00:54:11;13.40;83.80
32524;DHT22;18965;52.242;20.886;2022-11-02T00:56:37;13.40;83.80
32524;DHT22;18965;52.242;20.886;2022-11-02T00:59:03;13.40;83.80
32524;DHT22;18965;52.242;20.886;2022-11-02T01:01:29;13.40;83.80
32524;DHT22;18965;52.242;20.886;2022-11-02T01:03:56;13.40;83.80
32524;DHT22;18965;52.242;20.886;2022-11-02T01:06:22;13.40;83.90
32524;DHT22;18965;52.242;20.886;2022-11-02T01:08:48;13.40;83.80
32524;DHT22;18965;52.242;20.886;2022-11-02T01:11:22;13.40;83.90
32524;DHT22;18965;52.242;20.886;2022-11-02T01:13:51;13.40;83.90
32524;DHT22;18965;52.242;20.886;2022-11-02T01:16:17;13.40;83.90
32524;DHT22;18965;52.242;20.886;2022-11-02T01:18:43;13.40;83.90
32524;DHT22;18965;52.242;20.886;2022-11-02T01:21:09;13.40;83.90
32524;DHT22;18965;52.242;20.886;2022-11-02T01:23:36;13.40;84.00
32524;DHT22;18965;52.242;20.886;2022-11-02T01:26:06;13.40;84.00
32524;DHT22;18965;52.242;20.886;2022-11-02T01:28:33;13.50;84.00
32524;DHT22;18965;52.242;20.886;2022-11-02T01:30:59;13.50;84.00
32524;DHT22;18965;52.242;20.886;2022-11-02T01:33:26;13.50;84.00
32524;DHT22;18965;52.242;20.886;2022-11-02T01:35:52;13.50;84.00
32524;DHT22;18965;52.242;20.886;2022-11-02T01:38:19;13.50;83.90
32524;DHT22;18965;52.242;20.886;2022-11-02T01:40:44;13.50;83.80
32524;DHT22;18965;52.242;20.886;2022-11-02T01:43:40;13.50;83.90
32524;DHT22;18965;52.242;20.886;2022-11-02T01:48:47;13.50;83.80
32524;DHT22;18965;52.242;20.886;2022-11-02T01:51:17;13.50;83.90
32524;DHT22;18965;52.242;20.886;2022-11-02T01:53:46;13.50;83.80
32524;DHT22;18965;52.242;20.886;2022-11-02T01:56:16;13.50;83.80
32524;DHT22;18965;52.242;20.886;2022-11-02T01:58:44;13.50;83.80
32524;DHT22;18965;52.242;20.886;2022-11-02T02:01:12;13.50;83.80
32524;DHT22;18965;52.242;20.886;2022-11-02T02:03:38;13.50;83.90
32524;DHT22;18965;52.242;20.886;2022-11-02T02:06:09;13.50;83.90
32524;DHT22;18965;52.242;20.886;2022-11-02T02:08:39;13.50;83.90
32524;DHT22;18965;52.242;20.886;2022-11-02T02:13:53;13.50;83.90
32524;DHT22;18965;52.242;20.886;2022-11-02T02:19:00;13.50;84.00
32524;DHT22;18965;52.242;20.886;2022-11-02T02:21:48;13.50;84.00
32524;DHT22;18965;52.242;20.886;2022-11-02T02:24:43;13.50;84.00
32524;DHT22;18965;52.242;20.886;2022-11-02T02:30:04;13.60;84.20
32524;DHT22;18965;52.242;20.886;2022-11-02T02:32:32;13.60;84.20
32524;DHT22;18965;52.242;20.886;2022-11-02T02:35:18;13.60;84.20
32524;DHT22;18965;52.242;20.886;2022-11-02T02:37:54;13.60;84.20
32524;DHT22;18965;52.242;20.886;2022-11-02T02:40:51;13.60;84.20
32524;DHT22;18965;52.242;20.886;2022-11-02T02:43:24;13.60;84.20
32524;DHT22;18965;52.242;20.886;2022-11-02T02:45:54;13.60;84.10
32524;DHT22;18965;52.242;20.886;2022-11-02T02:48:23;13.60;84.20
32524;DHT22;18965;52.242;20.886;2022-11-02T02:51:25;13.60;84.30
32524;DHT22;18965;52.242;20.886;2022-11-02T02:53:49;13.60;84.40
32524;DHT22;18965;52.242;20.886;2022-11-02T02:56:18;13.60;84.30
32524;DHT22;18965;52.242;20.886;2022-11-02T02:59:01;13.60;84.30
32524;DHT22;18965;52.242;20.886;2022-11-02T03:01:28;13.60;84.40
32524;DHT22;18965;52.242;20.886;2022-11-02T03:03:54;13.60;84.50
32524;DHT22;18965;52.242;20.886;2022-11-02T03:06:38;13.60;84.50
32524;DHT22;18965;52.242;20.886;2022-11-02T03:09:28;13.70;84.70
32524;DHT22;18965;52.242;20.886;2022-11-02T03:20:10;13.70;84.70
32524;DHT22;18965;52.242;20.886;2022-11-02T03:23:19;13.70;84.80
32524;DHT22;18965;52.242;20.886;2022-11-02T03:26:00;13.80;84.80
32524;DHT22;18965;52.242;20.886;2022-11-02T03:31:42;13.80;85.60
32524;DHT22;18965;52.242;20.886;2022-11-02T03:34:23;13.80;84.90
32524;DHT22;18965;52.242;20.886;2022-11-02T03:39:35;13.90;85.00
32524;DHT22;18965;52.242;20.886;2022-11-02T03:42:03;13.90;85.00
32524;DHT22;18965;52.242;20.886;2022-11-02T03:44:34;13.90;85.00
32524;DHT22;18965;52.242;20.886;2022-11-02T03:47:03;13.90;84.90
32524;DHT22;18965;52.242;20.886;2022-11-02T03:49:30;13.90;84.90
32524;DHT22;18965;52.242;20.886;2022-11-02T03:52:02;13.90;84.90
32524;DHT22;18965;52.242;20.886;2022-11-02T03:55:27;13.90;84.90
32524;DHT22;18965;52.242;20.886;2022-11-02T03:57:40;13.90;85.00
32524;DHT22;18965;52.242;20.886;2022-11-02T04:00:12;14.00;85.10
32524;DHT22;18965;52.242;20.886;2022-11-02T04:02:40;14.00;85.20
32524;DHT22;18965;52.242;20.886;2022-11-02T04:05:07;14.00;85.20
32524;DHT22;18965;52.242;20.886;2022-11-02T04:07:35;14.00;85.20
32524;DHT22;18965;52.242;20.886;2022-11-02T04:10:20;14.00;85.20
32524;DHT22;18965;52.242;20.886;2022-11-02T04:12:46;14.00;85.20
32524;DHT22;18965;52.242;20.886;2022-11-02T04:15:31;14.10;85.20
32524;DHT22;18965;52.242;20.886;2022-11-02T04:17:57;14.10;85.20
32524;DHT22;18965;52.242;20.886;2022-11-02T04:20:41;14.10;85.20
32524;DHT22;18965;52.242;20.886;2022-11-02T04:23:07;14.10;85.20
32524;DHT22;18965;52.242;20.886;2022-11-02T04:25:54;14.20;85.30
32524;DHT22;18965;52.242;20.886;2022-11-02T04:28:20;14.20;85.30
32524;DHT22;18965;52.242;20.886;2022-11-02T04:30:46;14.20;85.30
32524;DHT22;18965;52.242;20.886;2022-11-02T04:33:12;14.20;85.20
32524;DHT22;18965;52.242;20.886;2022-11-02T04:36:01;14.20;85.20
32524;DHT22;18965;52.242;20.886;2022-11-02T04:38:28;14.20;85.20
32524;DHT22;18965;52.242;20.886;2022-11-02T04:43:51;14.30;85.30
32524;DHT22;18965;52.242;20.886;2022-11-02T04:46:18;14.20;85.30
32524;DHT22;18965;52.242;20.886;2022-11-02T04:48:44;14.30;85.30
32524;DHT22;18965;52.242;20.886;2022-11-02T04:51:11;14.30;85.40
32524;DHT22;18965;52.242;20.886;2022-11-02T04:53:37;14.30;85.30
32524;DHT22;18965;52.242;20.886;2022-11-02T04:56:04;14.30;85.30
32524;DHT22;18965;52.242;20.886;2022-11-02T04:58:30;14.30;85.30
32524;DHT22;18965;52.242;20.886;2022-11-02T05:00:56;14.30;85.30
32524;DHT22;18965;52.242;20.886;2022-11-02T05:03:22;14.30;85.40
32524;DHT22;18965;52.242;20.886;2022-11-02T05:05:53;14.40;85.40
32524;DHT22;18965;52.242;20.886;2022-11-02T05:08:19;14.30;85.30
32524;DHT22;18965;52.242;20.886;2022-11-02T05:10:45;14.40;85.30
32524;DHT22;18965;52.242;20.886;2022-11-02T05:13:11;14.40;86.10
32524;DHT22;18965;52.242;20.886;2022-11-02T05:15:41;14.40;85.30
32524;DHT22;18965;52.242;20.886;2022-11-02T05:18:07;14.40;85.30
32524;DHT22;18965;52.242;20.886;2022-11-02T05:20:33;14.40;85.30
32524;DHT22;18965;52.242;20.886;2022-11-02T05:22:58;14.40;85.30
32524;DHT22;18965;52.242;20.886;2022-11-02T05:25:25;14.40;85.30
32524;DHT22;18965;52.242;20.886;2022-11-02T05:27:51;14.40;85.20
32524;DHT22;18965;52.242;20.886;2022-11-02T05:30:17;14.40;85.30
32524;DHT22;18965;52.242;20.886;2022-11-02T05:32:43;14.40;85.30
32524;DHT22;18965;52.242;20.886;2022-11-02T05:35:09;14.40;85.30
32524;DHT22;18965;52.242;20.886;2022-11-02T05:37:34;14.40;85.30
32524;DHT22;18965;52.242;20.886;2022-11-02T05:40:00;14.40;85.30
32524;DHT22;18965;52.242;20.886;2022-11-02T05:42:26;14.40;85.40
32524;DHT22;18965;52.242;20.886;2022-11-02T05:44:52;14.40;85.40
32524;DHT22;18965;52.242;20.886;2022-11-02T05:47:18;14.40;85.50
32524;DHT22;18965;52.242;20.886;2022-11-02T05:49:44;14.50;85.60
32524;DHT22;18965;52.242;20.886;2022-11-02T05:52:09;14.50;85.50
32524;DHT22;18965;52.242;20.886;2022-11-02T05:54:35;14.50;85.60
32524;DHT22;18965;52.242;20.886;2022-11-02T05:57:01;14.50;85.60
32524;DHT22;18965;52.242;20.886;2022-11-02T05:59:30;14.50;85.60
32524;DHT22;18965;52.242;20.886;2022-11-02T06:01:56;14.50;85.70
32524;DHT22;18965;52.242;20.886;2022-11-02T06:04:23;14.50;85.70
32524;DHT22;18965;52.242;20.886;2022-11-02T06:06:49;14.50;85.80
32524;DHT22;18965;52.242;20.886;2022-11-02T06:09:14;14.50;85.80
32524;DHT22;18965;52.242;20.886;2022-11-02T06:11:40;14.60;85.80
32524;DHT22;18965;52.242;20.886;2022-11-02T06:14:06;14.60;85.80
32524;DHT22;18965;52.242;20.886;2022-11-02T06:16:32;14.60;85.80
32524;DHT22;18965;52.242;20.886;2022-11-02T06:18:58;14.60;85.70
32524;DHT22;18965;52.242;20.886;2022-11-02T06:21:24;14.70;85.80
32524;DHT22;18965;52.242;20.886;2022-11-02T06:23:50;14.70;85.70
32524;DHT22;18965;52.242;20.886;2022-11-02T06:26:16;14.70;85.70
32524;DHT22;18965;52.242;20.886;2022-11-02T06:28:42;14.70;85.70
32524;DHT22;18965;52.242;20.886;2022-11-02T06:31:08;14.70;85.70
32524;DHT22;18965;52.242;20.886;2022-11-02T06:33:34;14.70;85.70
32524;DHT22;18965;52.242;20.886;2022-11-02T06:36:00;14.80;85.80
32524;DHT22;18965;52.242;20.886;2022-11-02T06:38:33;14.80;85.70
32524;DHT22;18965;52.242;20.886;2022-11-02T06:41:01;14.80;85.70
32524;DHT22;18965;52.242;20.886;2022-11-02T06:43:28;14.90;85.60
32524;DHT22;18965;52.242;20.886;2022-11-02T06:45:56;14.80;85.50
32524;DHT22;18965;52.242;20.886;2022-11-02T06:48:24;14.90;85.50
32524;DHT22;18965;52.242;20.886;2022-11-02T06:50:50;14.90;85.50
32524;DHT22;18965;52.242;20.886;2022-11-02T06:53:16;14.90;85.50
32524;DHT22;18965;52.242;20.886;2022-11-02T06:55:43;15.00;85.50
32524;DHT22;18965;52.242;20.886;2022-11-02T06:58:09;15.00;85.30
32524;DHT22;18965;52.242;20.886;2022-11-02T07:00:35;15.00;85.10
32524;DHT22;18965;52.242;20.886;2022-11-02T07:03:06;15.10;85.00
32524;DHT22;18965;52.242;20.886;2022-11-02T07:05:34;15.10;85.00
32524;DHT22;18965;52.242;20.886;2022-11-02T07:08:01;15.10;84.80
32524;DHT22;18965;52.242;20.886;2022-11-02T07:10:31;15.20;84.80
32524;DHT22;18965;52.242;20.886;2022-11-02T07:12:57;15.20;84.80
32524;DHT22;18965;52.242;20.886;2022-11-02T07:15:24;15.20;84.70
32524;DHT22;18965;52.242;20.886;2022-11-02T07:17:51;15.30;84.80
32524;DHT22;18965;52.242;20.886;2022-11-02T07:20:17;15.30;84.60
32524;DHT22;18965;52.242;20.886;2022-11-02T07:22:52;15.30;84.50
32524;DHT22;18965;52.242;20.886;2022-11-02T07:25:18;15.40;84.40
32524;DHT22;18965;52.242;20.886;2022-11-02T07:27:44;15.40;84.20
32524;DHT22;18965;52.242;20.886;2022-11-02T07:30:10;15.50;84.10
32524;DHT22;18965;52.242;20.886;2022-11-02T07:32:43;15.50;83.90
32524;DHT22;18965;52.242;20.886;2022-11-02T07:35:10;15.50;83.70
32524;DHT22;18965;52.242;20.886;2022-11-02T07:37:37;15.50;83.60
32524;DHT22;18965;52.242;20.886;2022-11-02T07:40:04;15.50;83.50
32524;DHT22;18965;52.242;20.886;2022-11-02T07:42:30;15.50;83.50
32524;DHT22;18965;52.242;20.886;2022-11-02T07:44:56;15.50;83.50
32524;DHT22;18965;52.242;20.886;2022-11-02T07:47:22;15.50;83.40
32524;DHT22;18965;52.242;20.886;2022-11-02T07:49:48;15.50;83.30
32524;DHT22;18965;52.242;20.886;2022-11-02T07:52:14;15.50;83.40
32524;DHT22;18965;52.242;20.886;2022-11-02T07:54:40;15.60;83.50
32524;DHT22;18965;52.242;20.886;2022-11-02T07:57:06;15.60;83.40
32524;DHT22;18965;52.242;20.886;2022-11-02T07:59:32;15.60;83.30
32524;DHT22;18965;52.242;20.886;2022-11-02T08:01:58;15.60;83.40
32524;DHT22;18965;52.242;20.886;2022-11-02T08:04:24;15.70;83.50
32524;DHT22;18965;52.242;20.886;2022-11-02T08:06:49;15.80;83.60
32524;DHT22;18965;52.242;20.886;2022-11-02T08:09:15;15.90;83.70
32524;DHT22;18965;52.242;20.886;2022-11-02T08:11:41;16.10;83.40
32524;DHT22;18965;52.242;20.886;2022-11-02T08:14:07;16.10;83.20
32524;DHT22;18965;52.242;20.886;2022-11-02T08:16:33;16.20;82.80
32524;DHT22;18965;52.242;20.886;2022-11-02T08:18:58;16.20;82.50
32524;DHT22;18965;52.242;20.886;2022-11-02T08:21:25;16.30;83.00
32524;DHT22;18965;52.242;20.886;2022-11-02T08:23:51;16.30;82.20
32524;DHT22;18965;52.242;20.886;2022-11-02T08:26:16;16.30;82.00
32524;DHT22;18965;52.242;20.886;2022-11-02T08:28:42;16.40;81.70
32524;DHT22;18965;52.242;20.886;2022-11-02T08:31:16;16.40;81.50
32524;DHT22;18965;52.242;20.886;2022-11-02T08:33:43;16.50;81.40
32524;DHT22;18965;52.242;20.886;2022-11-02T08:36:09;16.50;81.20
32524;DHT22;18965;52.242;20.886;2022-11-02T08:38:35;16.50;80.80
32524;DHT22;18965;52.242;20.886;2022-11-02T08:41:01;16.50;80.50
32524;DHT22;18965;52.242;20.886;2022-11-02T08:43:27;16.50;80.30
32524;DHT22;18965;52.242;20.886;2022-11-02T08:45:56;16.50;80.30
32524;DHT22;18965;52.242;20.886;2022-11-02T08:48:22;16.50;80.10
32524;DHT22;18965;52.242;20.886;2022-11-02T08:50:48;16.50;80.00
32524;DHT22;18965;52.242;20.886;2022-11-02T08:53:14;16.60;80.00
32524;DHT22;18965;52.242;20.886;2022-11-02T08:55:40;16.60;80.00
32524;DHT22;18965;52.242;20.886;2022-11-02T08:58:06;16.60;79.90
32524;DHT22;18965;52.242;20.886;2022-11-02T09:00:32;16.70;79.70
32524;DHT22;18965;52.242;20.886;2022-11-02T09:03:06;16.70;79.30
32524;DHT22;18965;52.242;20.886;2022-11-02T09:05:35;16.70;79.00
32524;DHT22;18965;52.242;20.886;2022-11-02T09:08:04;16.70;78.90
32524;DHT22;18965;52.242;20.886;2022-11-02T09:10:32;16.70;78.70
32524;DHT22;18965;52.242;20.886;2022-11-02T09:12:59;16.70;78.70
32524;DHT22;18965;52.242;20.886;2022-11-02T09:15:26;16.80;78.70
32524;DHT22;18965;52.242;20.886;2022-11-02T09:17:52;16.80;78.60
32524;DHT22;18965;52.242;20.886;2022-11-02T09:20:18;16.70;78.50
32524;DHT22;18965;52.242;20.886;2022-11-02T09:22:44;16.70;78.40
32524;DHT22;18965;52.242;20.886;2022-11-02T09:25:11;16.70;78.40
32524;DHT22;18965;52.242;20.886;2022-11-02T09:27:37;16.80;78.50
32524;DHT22;18965;52.242;20.886;2022-11-02T09:30:04;16.80;78.40
32524;DHT22;18965;52.242;20.886;2022-11-02T09:32:30;16.80;78.20
32524;DHT22;18965;52.242;20.886;2022-11-02T09:35:03;16.90;78.20
32524;DHT22;18965;52.242;20.886;2022-11-02T09:37:29;16.90;77.90
32524;DHT22;18965;52.242;20.886;2022-11-02T09:39:55;16.90;77.90
32524;DHT22;18965;52.242;20.886;2022-11-02T09:45:15;16.90;77.50
32524;DHT22;18965;52.242;20.886;2022-11-02T09:47:48;16.90;77.40
32524;DHT22;18965;52.242;20.886;2022-11-02T09:50:21;16.80;77.20
32524;DHT22;18965;52.242;20.886;2022-11-02T09:52:56;16.80;77.20
32524;DHT22;18965;52.242;20.886;2022-11-02T09:55:33;16.80;77.40
32524;DHT22;18965;52.242;20.886;2022-11-02T09:58:06;16.80;77.40
32524;DHT22;18965;52.242;20.886;2022-11-02T10:00:38;16.80;77.50
32524;DHT22;18965;52.242;20.886;2022-11-02T10:06:10;16.80;77.30
32524;DHT22;18965;52.242;20.886;2022-11-02T10:09:08;16.80;77.40
32524;DHT22;18965;52.242;20.886;2022-11-02T10:11:51;16.80;77.30
32524;DHT22;18965;52.242;20.886;2022-11-02T10:19:29;16.70;77.70
32524;DHT22;18965;52.242;20.886;2022-11-02T10:21:57;16.70;77.70
32524;DHT22;18965;52.242;20.886;2022-11-02T10:24:37;16.70;77.70
32524;DHT22;18965;52.242;20.886;2022-11-02T10:27:04;16.70;77.70
32524;DHT22;18965;52.242;20.886;2022-11-02T10:32:08;16.80;77.90
32524;DHT22;18965;52.242;20.886;2022-11-02T10:34:35;16.80;77.90
32524;DHT22;18965;52.242;20.886;2022-11-02T10:45:38;16.90;77.90
32524;DHT22;18965;52.242;20.886;2022-11-02T10:51:10;16.90;77.90
32524;DHT22;18965;52.242;20.886;2022-11-02T10:53:45;16.90;78.00
32524;DHT22;18965;52.242;20.886;2022-11-02T10:56:22;17.00;78.00
32524;DHT22;18965;52.242;20.886;2022-11-02T10:58:58;17.10;77.90
32524;DHT22;18965;52.242;20.886;2022-11-02T11:01:28;17.20;77.60
32524;DHT22;18965;52.242;20.886;2022-11-02T11:06:22;17.20;77.00
32524;DHT22;18965;52.242;20.886;2022-11-02T11:08:48;17.30;76.70
32524;DHT22;18965;52.242;20.886;2022-11-02T11:11:26;17.30;76.60
32524;DHT22;18965;52.242;20.886;2022-11-02T11:13:59;17.40;76.60
32524;DHT22;18965;52.242;20.886;2022-11-02T11:16:39;17.40;76.50
32524;DHT22;18965;52.242;20.886;2022-11-02T11:22:26;17.60;75.70
32524;DHT22;18965;52.242;20.886;2022-11-02T11:28:22;17.60;74.80
32524;DHT22;18965;52.242;20.886;2022-11-02T11:31:08;17.60;74.20
32524;DHT22;18965;52.242;20.886;2022-11-02T11:33:46;17.60;73.90
32524;DHT22;18965;52.242;20.886;2022-11-02T11:36:30;17.50;73.50
32524;DHT22;18965;52.242;20.886;2022-11-02T11:39:05;17.50;73.10
32524;DHT22;18965;52.242;20.886;2022-11-02T11:41:33;17.40;73.00
32524;DHT22;18965;52.242;20.886;2022-11-02T11:44:01;17.40;73.30
32524;DHT22;18965;52.242;20.886;2022-11-02T11:46:47;17.40;73.30
32524;DHT22;18965;52.242;20.886;2022-11-02T11:49:35;17.40;72.90
32524;DHT22;18965;52.242;20.886;2022-11-02T11:52:03;17.40;72.80
32524;DHT22;18965;52.242;20.886;2022-11-02T11:54:31;17.40;72.80
32524;DHT22;18965;52.242;20.886;2022-11-02T11:56:58;17.30;72.70
32524;DHT22;18965;52.242;20.886;2022-11-02T11:59:26;17.30;73.50
32524;DHT22;18965;52.242;20.886;2022-11-02T12:01:56;17.30;73.00
32524;DHT22;18965;52.242;20.886;2022-11-02T12:04:26;17.30;73.10
32524;DHT22;18965;52.242;20.886;2022-11-02T12:09:56;17.30;73.30
32524;DHT22;18965;52.242;20.886;2022-11-02T12:16:11;17.20;73.50
32524;DHT22;18965;52.242;20.886;2022-11-02T12:31:46;17.30;73.50
32524;DHT22;18965;52.242;20.886;2022-11-02T12:39:34;17.10;74.10
32524;DHT22;18965;52.242;20.886;2022-11-02T12:53:03;17.50;73.50
32524;DHT22;18965;52.242;20.886;2022-11-02T12:55:41;17.50;73.60
32524;DHT22;18965;52.242;20.886;2022-11-02T12:58:21;17.50;73.30
32524;DHT22;18965;52.242;20.886;2022-11-02T13:00:54;17.40;73.10
32524;DHT22;18965;52.242;20.886;2022-11-02T13:03:46;17.30;72.90
32524;DHT22;18965;52.242;20.886;2022-11-02T13:06:16;17.30;73.00
32524;DHT22;18965;52.242;20.886;2022-11-02T13:09:01;17.20;73.10
32524;DHT22;18965;52.242;20.886;2022-11-02T13:11:45;17.10;73.10
32524;DHT22;18965;52.242;20.886;2022-11-02T13:14:18;17.10;73.20
32524;DHT22;18965;52.242;20.886;2022-11-02T13:17:05;17.10;73.20
32524;DHT22;18965;52.242;20.886;2022-11-02T13:19:50;17.00;73.00
32524;DHT22;18965;52.242;20.886;2022-11-02T13:22:19;17.00;73.00
32524;DHT22;18965;52.242;20.886;2022-11-02T13:24:52;16.90;73.60
32524;DHT22;18965;52.242;20.886;2022-11-02T13:27:37;16.80;72.80
32524;DHT22;18965;52.242;20.886;2022-11-02T13:30:13;16.70;73.10
32524;DHT22;18965;52.242;20.886;2022-11-02T13:32:56;16.60;73.20
32524;DHT22;18965;52.242;20.886;2022-11-02T13:35:37;16.50;73.30
32524;DHT22;18965;52.242;20.886;2022-11-02T13:56:51;16.00;74.50
32524;DHT22;18965;52.242;20.886;2022-11-02T13:59:27;15.90;74.70
32524;DHT22;18965;52.242;20.886;2022-11-02T14:01:54;15.80;74.70
32524;DHT22;18965;52.242;20.886;2022-11-02T14:04:21;15.80;74.80
32524;DHT22;18965;52.242;20.886;2022-11-02T14:07:04;15.70;75.00
32524;DHT22;18965;52.242;20.886;2022-11-02T14:09:38;15.70;75.10
32524;DHT22;18965;52.242;20.886;2022-11-02T14:12:45;15.60;75.10
32524;DHT22;18965;52.242;20.886;2022-11-02T14:25:48;15.30;75.80
32524;DHT22;18965;52.242;20.886;2022-11-02T14:30:47;15.20;76.10
32524;DHT22;18965;52.242;20.886;2022-11-02T14:47:11;14.80;76.90
32524;DHT22;18965;52.242;20.886;2022-11-02T14:59:52;14.40;77.40
32524;DHT22;18965;52.242;20.886;2022-11-02T15:02:31;14.40;77.60
32524;DHT22;18965;52.242;20.886;2022-11-02T15:04:59;14.20;77.60
32524;DHT22;18965;52.242;20.886;2022-11-02T15:07:36;14.20;77.70
32524;DHT22;18965;52.242;20.886;2022-11-02T15:12:36;14.00;77.90
32524;DHT22;18965;52.242;20.886;2022-11-02T15:17:57;13.80;78.00
32524;DHT22;18965;52.242;20.886;2022-11-02T15:20:33;13.80;78.20
32524;DHT22;18965;52.242;20.886;2022-11-02T15:23:21;13.70;78.30
32524;DHT22;18965;52.242;20.886;2022-11-02T15:25:52;13.60;78.40
32524;DHT22;18965;52.242;20.886;2022-11-02T15:28:24;13.50;78.40
32524;DHT22;18965;52.242;20.886;2022-11-02T15:30:54;13.40;78.50
32524;DHT22;18965;52.242;20.886;2022-11-02T15:33:40;13.30;78.50
32524;DHT22;18965;52.242;20.886;2022-11-02T15:36:23;13.30;78.60
32524;DHT22;18965;52.242;20.886;2022-11-02T15:38:52;13.20;78.70
32524;DHT22;18965;52.242;20.886;2022-11-02T15:46:40;13.00;79.10
32524;DHT22;18965;52.242;20.886;2022-11-02T15:52:04;12.90;79.40
32524;DHT22;18965;52.242;20.886;2022-11-02T15:55:07;12.80;79.40
32524;DHT22;18965;52.242;20.886;2022-11-02T16:00:32;12.60;79.80
32524;DHT22;18965;52.242;20.886;2022-11-02T16:03:05;12.60;79.90
32524;DHT22;18965;52.242;20.886;2022-11-02T16:08:20;12.50;80.30
32524;DHT22;18965;52.242;20.886;2022-11-02T16:10:47;12.50;80.40
32524;DHT22;18965;52.242;20.886;2022-11-02T16:13:18;12.40;80.40
32524;DHT22;18965;52.242;20.886;2022-11-02T16:15:46;12.40;80.60
32524;DHT22;18965;52.242;20.886;2022-11-02T16:20:47;12.30;80.80
32524;DHT22;18965;52.242;20.886;2022-11-02T16:23:21;12.30;81.50
32524;DHT22;18965;52.242;20.886;2022-11-02T16:25:47;12.20;81.00
32524;DHT22;18965;52.242;20.886;2022-11-02T16:33:28;12.10;81.40
32524;DHT22;18965;52.242;20.886;2022-11-02T16:35:55;12.10;81.30
32524;DHT22;18965;52.242;20.886;2022-11-02T16:38:21;12.10;81.30
32524;DHT22;18965;52.242;20.886;2022-11-02T16:40:47;12.00;81.50
32524;DHT22;18965;52.242;20.886;2022-11-02T16:43:14;12.00;81.70
32524;DHT22;18965;52.242;20.886;2022-11-02T16:45:40;11.90;81.80
32524;DHT22;18965;52.242;20.886;2022-11-02T16:51:02;11.90;82.00
32524;DHT22;18965;52.242;20.886;2022-11-02T16:53:30;11.90;82.10
32524;DHT22;18965;52.242;20.886;2022-11-02T16:55:58;11.90;82.10
32524;DHT22;18965;52.242;20.886;2022-11-02T16:58:37;11.80;82.10
32524;DHT22;18965;52.242;20.886;2022-11-02T17:01:03;11.80;82.10
32524;DHT22;18965;52.242;20.886;2022-11-02T17:03:33;11.80;82.10
32524;DHT22;18965;52.242;20.886;2022-11-02T17:06:02;11.80;82.20
32524;DHT22;18965;52.242;20.886;2022-11-02T17:08:33;11.70;82.20
32524;DHT22;18965;52.242;20.886;2022-11-02T17:11:02;11.70;82.20
32524;DHT22;18965;52.242;20.886;2022-11-02T17:13:31;11.70;82.10
32524;DHT22;18965;52.242;20.886;2022-11-02T17:16:10;11.70;82.20
32524;DHT22;18965;52.242;20.886;2022-11-02T17:18:37;11.70;82.10
32524;DHT22;18965;52.242;20.886;2022-11-02T17:23:41;11.60;82.00
32524;DHT22;18965;52.242;20.886;2022-11-02T17:31:33;11.50;82.00
32524;DHT22;18965;52.242;20.886;2022-11-02T17:34:20;11.50;81.90
32524;DHT22;18965;52.242;20.886;2022-11-02T17:36:47;11.40;82.00
32524;DHT22;18965;52.242;20.886;2022-11-02T17:39:18;11.40;82.10
32524;DHT22;18965;52.242;20.886;2022-11-02T17:41:53;11.40;82.40
32524;DHT22;18965;52.242;20.886;2022-11-02T17:44:37;11.50;82.60
32524;DHT22;18965;52.242;20.886;2022-11-02T17:47:22;11.50;82.70
32524;DHT22;18965;52.242;20.886;2022-11-02T17:49:47;11.60;82.90
32524;DHT22;18965;52.242;20.886;2022-11-02T17:52:14;11.60;82.90
32524;DHT22;18965;52.242;20.886;2022-11-02T17:54:43;11.60;83.00
32524;DHT22;18965;52.242;20.886;2022-11-02T17:57:13;11.70;83.00
32524;DHT22;18965;52.242;20.886;2022-11-02T17:59:39;11.70;83.10
32524;DHT22;18965;52.242;20.886;2022-11-02T18:02:11;11.70;83.20
32524;DHT22;18965;52.242;20.886;2022-11-02T18:04:37;11.80;83.40
32524;DHT22;18965;52.242;20.886;2022-11-02T18:07:03;11.80;83.30
32524;DHT22;18965;52.242;20.886;2022-11-02T18:09:29;11.90;83.40
32524;DHT22;18965;52.242;20.886;2022-11-02T18:11:54;11.90;83.40
32524;DHT22;18965;52.242;20.886;2022-11-02T18:14:20;11.90;83.40
32524;DHT22;18965;52.242;20.886;2022-11-02T18:16:46;12.00;83.30
32524;DHT22;18965;52.242;20.886;2022-11-02T18:19:12;12.00;83.20
32524;DHT22;18965;52.242;20.886;2022-11-02T18:21:38;12.00;83.10
32524;DHT22;18965;52.242;20.886;2022-11-02T18:24:04;12.10;83.00
32524;DHT22;18965;52.242;20.886;2022-11-02T18:26:31;12.10;82.90
32524;DHT22;18965;52.242;20.886;2022-11-02T18:28:56;12.10;82.90
32524;DHT22;18965;52.242;20.886;2022-11-02T18:31:22;12.10;82.90
32524;DHT22;18965;52.242;20.886;2022-11-02T18:33:48;12.10;82.90
32524;DHT22;18965;52.242;20.886;2022-11-02T18:36:16;12.20;83.00
32524;DHT22;18965;52.242;20.886;2022-11-02T18:38:42;12.20;83.00
32524;DHT22;18965;52.242;20.886;2022-11-02T18:41:09;12.30;83.00
32524;DHT22;18965;52.242;20.886;2022-11-02T18:43:59;12.30;82.90
32524;DHT22;18965;52.242;20.886;2022-11-02T18:46:28;12.30;82.80